首页
METAR-TAF:

METAR-TAF

机场 :

阿什维尔, 北卡罗来纳州, 美国

纬度: 35-25-55N, 经度: 082-32-15W, 海拔: 660米

当前天气观测

该预报发布于20分钟前的10:54 UTC
风速8节,风向北转西北
温度 0°C
湿度 80%
气压 1026 hPa
能見度: 16.1公里
天空无云

METAR: KAVL 221054Z AUTO 33008KT 10SM CLR 00/M03 A3031 RMK AO2 SLP270 T00001028

时间: 06:14 (11:14 UTC)

预报

该预报发布于5小时和42分钟前的05:32 UTC
预报有效从22日的 06点(UTC)到 23日的 06点(UTC)
风速7节,风向北转西北
能見度: 10公里
天空无云
从 22日的 1300点(UTC)
风速5节,风向
能見度: 10公里
少量云层高于25000英尺
从 22日的 1900点(UTC)
风速5节,风向南转南东
能見度: 10公里
散云层高于25000英尺
从 23日的 0400点(UTC)
风速4节,风向南转南东
能見度: 10公里
少量云层高于6000英尺
散云层高于20000英尺

TAF: KAVL 220532Z 2206/2306 34007KT P6SM SKC FM221300 35005KT P6SM FEW250 FM221900 15005KT P6SM SCT250 FM230400 16004KT P6SM FEW060 SCT200

超过4000个机场的气象观测和天气预报(METAR&TAF报告)。

可查询的气象台以黄色和红色小点在地图上表示。

将鼠标移到小点上方,可查看气象台名称。

然后点击查看天气观测和预报。

如需切换地图:点击带黑十字的绿色按钮放大地图;点击带横线的绿色按钮缩小地图;或者点击绿色箭头查看邻近地区的地图。


METAR-TAF: